sensor_id;sensor_type;location;lat;lon;timestamp;P1;durP1;ratioP1;P2;durP2;ratioP2
45887;SDS011;31595;51.418;7.572;2023-12-14T00:00:50;26.60;;;20.45;;
45887;SDS011;31595;51.418;7.572;2023-12-14T00:03:17;18.65;;;15.48;;
45887;SDS011;31595;51.418;7.572;2023-12-14T00:05:43;15.20;;;12.07;;
45887;SDS011;31595;51.418;7.572;2023-12-14T00:08:12;14.88;;;10.75;;
45887;SDS011;31595;51.418;7.572;2023-12-14T00:10:38;12.05;;;10.68;;
45887;SDS011;31595;51.418;7.572;2023-12-14T00:13:05;10.65;;;9.43;;
45887;SDS011;31595;51.418;7.572;2023-12-14T00:15:33;10.73;;;9.07;;
45887;SDS011;31595;51.418;7.572;2023-12-14T00:18:00;12.43;;;9.82;;
45887;SDS011;31595;51.418;7.572;2023-12-14T00:20:26;11.13;;;9.02;;
45887;SDS011;31595;51.418;7.572;2023-12-14T00:22:53;12.00;;;9.60;;
45887;SDS011;31595;51.418;7.572;2023-12-14T00:25:21;10.60;;;9.13;;
45887;SDS011;31595;51.418;7.572;2023-12-14T00:27:48;11.73;;;9.35;;
45887;SDS011;31595;51.418;7.572;2023-12-14T00:30:15;12.82;;;9.05;;
45887;SDS011;31595;51.418;7.572;2023-12-14T00:32:42;13.55;;;9.27;;
45887;SDS011;31595;51.418;7.572;2023-12-14T00:35:09;10.73;;;7.60;;
45887;SDS011;31595;51.418;7.572;2023-12-14T00:37:36;8.68;;;7.03;;
45887;SDS011;31595;51.418;7.572;2023-12-14T00:40:02;11.80;;;7.45;;
45887;SDS011;31595;51.418;7.572;2023-12-14T00:42:31;8.73;;;7.10;;
45887;SDS011;31595;51.418;7.572;2023-12-14T00:44:58;8.45;;;6.85;;
45887;SDS011;31595;51.418;7.572;2023-12-14T00:47:24;10.30;;;8.07;;
45887;SDS011;31595;51.418;7.572;2023-12-14T00:49:51;10.07;;;8.65;;
45887;SDS011;31595;51.418;7.572;2023-12-14T00:52:18;11.55;;;9.48;;
45887;SDS011;31595;51.418;7.572;2023-12-14T00:54:45;12.85;;;10.43;;
45887;SDS011;31595;51.418;7.572;2023-12-14T00:57:12;11.95;;;10.23;;
45887;SDS011;31595;51.418;7.572;2023-12-14T00:59:40;14.23;;;11.40;;
45887;SDS011;31595;51.418;7.572;2023-12-14T01:02:07;14.73;;;12.00;;
45887;SDS011;31595;51.418;7.572;2023-12-14T01:04:34;13.05;;;10.73;;
45887;SDS011;31595;51.418;7.572;2023-12-14T01:07:01;11.82;;;10.48;;
45887;SDS011;31595;51.418;7.572;2023-12-14T01:09:27;11.65;;;9.57;;
45887;SDS011;31595;51.418;7.572;2023-12-14T01:11:54;11.77;;;9.90;;
45887;SDS011;31595;51.418;7.572;2023-12-14T01:14:21;12.13;;;10.23;;
45887;SDS011;31595;51.418;7.572;2023-12-14T01:16:49;15.45;;;11.32;;
45887;SDS011;31595;51.418;7.572;2023-12-14T01:19:16;12.88;;;10.68;;
45887;SDS011;31595;51.418;7.572;2023-12-14T01:21:43;13.45;;;10.80;;
45887;SDS011;31595;51.418;7.572;2023-12-14T01:24:10;15.07;;;10.65;;
45887;SDS011;31595;51.418;7.572;2023-12-14T01:26:37;12.30;;;9.90;;
45887;SDS011;31595;51.418;7.572;2023-12-14T01:29:03;12.20;;;10.00;;
45887;SDS011;31595;51.418;7.572;2023-12-14T01:31:30;11.45;;;9.20;;
45887;SDS011;31595;51.418;7.572;2023-12-14T01:33:58;11.57;;;9.68;;
45887;SDS011;31595;51.418;7.572;2023-12-14T01:36:26;9.80;;;8.18;;
45887;SDS011;31595;51.418;7.572;2023-12-14T01:38:53;8.95;;;7.40;;
45887;SDS011;31595;51.418;7.572;2023-12-14T01:41:19;7.60;;;6.50;;
45887;SDS011;31595;51.418;7.572;2023-12-14T01:43:46;6.20;;;5.60;;
45887;SDS011;31595;51.418;7.572;2023-12-14T01:46:13;5.90;;;5.30;;
45887;SDS011;31595;51.418;7.572;2023-12-14T01:48:41;7.10;;;6.40;;
45887;SDS011;31595;51.418;7.572;2023-12-14T01:51:10;6.93;;;6.07;;
45887;SDS011;31595;51.418;7.572;2023-12-14T01:53:37;6.88;;;6.10;;
45887;SDS011;31595;51.418;7.572;2023-12-14T01:56:04;7.00;;;6.03;;
45887;SDS011;31595;51.418;7.572;2023-12-14T01:58:31;7.40;;;6.00;;
45887;SDS011;31595;51.418;7.572;2023-12-14T02:00:58;7.43;;;6.63;;
45887;SDS011;31595;51.418;7.572;2023-12-14T02:03:27;9.88;;;7.80;;
45887;SDS011;31595;51.418;7.572;2023-12-14T02:05:54;8.75;;;7.13;;
45887;SDS011;31595;51.418;7.572;2023-12-14T02:08:24;9.73;;;7.80;;
45887;SDS011;31595;51.418;7.572;2023-12-14T02:10:51;16.23;;;10.65;;
45887;SDS011;31595;51.418;7.572;2023-12-14T02:13:18;11.90;;;9.63;;
45887;SDS011;31595;51.418;7.572;2023-12-14T02:15:45;15.07;;;11.25;;
45887;SDS011;31595;51.418;7.572;2023-12-14T02:18:12;12.88;;;9.93;;
45887;SDS011;31595;51.418;7.572;2023-12-14T02:20:39;19.77;;;14.13;;
45887;SDS011;31595;51.418;7.572;2023-12-14T02:23:07;16.77;;;12.27;;
45887;SDS011;31595;51.418;7.572;2023-12-14T02:25:34;16.30;;;12.57;;
45887;SDS011;31595;51.418;7.572;2023-12-14T02:28:01;19.45;;;14.48;;
45887;SDS011;31595;51.418;7.572;2023-12-14T02:30:27;17.58;;;13.38;;
45887;SDS011;31595;51.418;7.572;2023-12-14T02:32:54;16.70;;;12.32;;
45887;SDS011;31595;51.418;7.572;2023-12-14T02:35:21;17.92;;;13.27;;
45887;SDS011;31595;51.418;7.572;2023-12-14T02:37:48;20.90;;;13.90;;
45887;SDS011;31595;51.418;7.572;2023-12-14T02:40:16;17.02;;;13.63;;
45887;SDS011;31595;51.418;7.572;2023-12-14T02:42:43;16.73;;;13.77;;
45887;SDS011;31595;51.418;7.572;2023-12-14T02:45:10;18.98;;;13.63;;
45887;SDS011;31595;51.418;7.572;2023-12-14T02:47:37;15.50;;;12.65;;
45887;SDS011;31595;51.418;7.572;2023-12-14T02:50:04;17.33;;;12.85;;
45887;SDS011;31595;51.418;7.572;2023-12-14T02:52:31;15.18;;;11.82;;
45887;SDS011;31595;51.418;7.572;2023-12-14T02:54:58;16.40;;;12.82;;
45887;SDS011;31595;51.418;7.572;2023-12-14T02:57:26;14.43;;;11.13;;
45887;SDS011;31595;51.418;7.572;2023-12-14T02:59:53;13.95;;;11.50;;
45887;SDS011;31595;51.418;7.572;2023-12-14T03:02:20;14.50;;;11.73;;
45887;SDS011;31595;51.418;7.572;2023-12-14T03:04:47;14.77;;;11.82;;
45887;SDS011;31595;51.418;7.572;2023-12-14T03:07:13;11.20;;;9.45;;
45887;SDS011;31595;51.418;7.572;2023-12-14T03:09:40;13.55;;;10.45;;
45887;SDS011;31595;51.418;7.572;2023-12-14T03:12:09;11.85;;;10.10;;
45887;SDS011;31595;51.418;7.572;2023-12-14T03:14:37;11.80;;;10.13;;
45887;SDS011;31595;51.418;7.572;2023-12-14T03:17:06;13.57;;;10.93;;
45887;SDS011;31595;51.418;7.572;2023-12-14T03:19:38;10.77;;;9.18;;
45887;SDS011;31595;51.418;7.572;2023-12-14T03:22:04;11.73;;;9.15;;
45887;SDS011;31595;51.418;7.572;2023-12-14T03:24:31;10.15;;;8.77;;
45887;SDS011;31595;51.418;7.572;2023-12-14T03:26:58;10.38;;;8.18;;
45887;SDS011;31595;51.418;7.572;2023-12-14T03:29:26;10.27;;;8.57;;
45887;SDS011;31595;51.418;7.572;2023-12-14T03:31:55;9.48;;;8.48;;
45887;SDS011;31595;51.418;7.572;2023-12-14T03:34:22;11.82;;;9.85;;
45887;SDS011;31595;51.418;7.572;2023-12-14T03:36:49;9.93;;;8.25;;
45887;SDS011;31595;51.418;7.572;2023-12-14T03:39:16;9.60;;;8.25;;
45887;SDS011;31595;51.418;7.572;2023-12-14T03:41:42;11.00;;;8.95;;
45887;SDS011;31595;51.418;7.572;2023-12-14T03:44:10;10.35;;;8.70;;
45887;SDS011;31595;51.418;7.572;2023-12-14T03:46:36;10.52;;;9.13;;
45887;SDS011;31595;51.418;7.572;2023-12-14T03:49:05;11.98;;;10.20;;
45887;SDS011;31595;51.418;7.572;2023-12-14T03:51:32;10.45;;;9.05;;
45887;SDS011;31595;51.418;7.572;2023-12-14T03:53:58;10.18;;;8.65;;
45887;SDS011;31595;51.418;7.572;2023-12-14T03:56:25;10.55;;;9.43;;
45887;SDS011;31595;51.418;7.572;2023-12-14T03:58:52;13.77;;;11.20;;
45887;SDS011;31595;51.418;7.572;2023-12-14T04:01:19;16.63;;;13.63;;
45887;SDS011;31595;51.418;7.572;2023-12-14T04:03:46;17.00;;;13.77;;
45887;SDS011;31595;51.418;7.572;2023-12-14T04:06:15;19.10;;;14.55;;
45887;SDS011;31595;51.418;7.572;2023-12-14T04:08:41;18.98;;;15.70;;
45887;SDS011;31595;51.418;7.572;2023-12-14T04:11:08;23.48;;;17.10;;
45887;SDS011;31595;51.418;7.572;2023-12-14T04:13:35;21.15;;;17.30;;
45887;SDS011;31595;51.418;7.572;2023-12-14T04:16:02;21.70;;;16.60;;
45887;SDS011;31595;51.418;7.572;2023-12-14T04:18:29;22.23;;;16.35;;
45887;SDS011;31595;51.418;7.572;2023-12-14T04:20:56;20.83;;;15.85;;
45887;SDS011;31595;51.418;7.572;2023-12-14T04:23:24;22.35;;;15.82;;
45887;SDS011;31595;51.418;7.572;2023-12-14T04:25:52;22.45;;;16.20;;
45887;SDS011;31595;51.418;7.572;2023-12-14T04:28:19;18.67;;;13.52;;
45887;SDS011;31595;51.418;7.572;2023-12-14T04:30:45;19.08;;;14.05;;
45887;SDS011;31595;51.418;7.572;2023-12-14T04:33:12;18.17;;;13.85;;
45887;SDS011;31595;51.418;7.572;2023-12-14T04:35:40;17.40;;;12.93;;
45887;SDS011;31595;51.418;7.572;2023-12-14T04:38:06;18.27;;;13.23;;
45887;SDS011;31595;51.418;7.572;2023-12-14T04:40:35;19.55;;;14.60;;
45887;SDS011;31595;51.418;7.572;2023-12-14T04:43:02;16.95;;;12.82;;
45887;SDS011;31595;51.418;7.572;2023-12-14T04:45:29;15.25;;;11.63;;
45887;SDS011;31595;51.418;7.572;2023-12-14T04:47:55;16.95;;;11.90;;
45887;SDS011;31595;51.418;7.572;2023-12-14T04:50:22;17.90;;;12.05;;
45887;SDS011;31595;51.418;7.572;2023-12-14T04:52:49;14.98;;;10.52;;
45887;SDS011;31595;51.418;7.572;2023-12-14T04:55:16;13.55;;;10.13;;
45887;SDS011;31595;51.418;7.572;2023-12-14T04:57:44;11.35;;;9.05;;
45887;SDS011;31595;51.418;7.572;2023-12-14T05:00:14;11.32;;;8.50;;
45887;SDS011;31595;51.418;7.572;2023-12-14T05:02:41;10.68;;;8.27;;
45887;SDS011;31595;51.418;7.572;2023-12-14T05:05:13;11.48;;;8.82;;
45887;SDS011;31595;51.418;7.572;2023-12-14T05:07:40;12.20;;;8.88;;
45887;SDS011;31595;51.418;7.572;2023-12-14T05:10:07;11.18;;;8.43;;
45887;SDS011;31595;51.418;7.572;2023-12-14T05:12:35;11.43;;;8.13;;
45887;SDS011;31595;51.418;7.572;2023-12-14T05:15:03;11.35;;;8.95;;
45887;SDS011;31595;51.418;7.572;2023-12-14T05:17:30;11.45;;;8.98;;
45887;SDS011;31595;51.418;7.572;2023-12-14T05:19:57;11.40;;;8.18;;
45887;SDS011;31595;51.418;7.572;2023-12-14T05:22:24;12.15;;;9.68;;
45887;SDS011;31595;51.418;7.572;2023-12-14T05:24:51;10.77;;;8.75;;
45887;SDS011;31595;51.418;7.572;2023-12-14T05:27:18;11.60;;;8.93;;
45887;SDS011;31595;51.418;7.572;2023-12-14T05:29:45;13.85;;;9.90;;
45887;SDS011;31595;51.418;7.572;2023-12-14T05:32:13;11.07;;;8.30;;
45887;SDS011;31595;51.418;7.572;2023-12-14T05:34:39;10.63;;;8.45;;
45887;SDS011;31595;51.418;7.572;2023-12-14T05:37:06;10.70;;;8.43;;
45887;SDS011;31595;51.418;7.572;2023-12-14T05:39:33;9.88;;;7.78;;
45887;SDS011;31595;51.418;7.572;2023-12-14T05:42:00;12.52;;;8.90;;
45887;SDS011;31595;51.418;7.572;2023-12-14T05:44:27;13.40;;;9.23;;
45887;SDS011;31595;51.418;7.572;2023-12-14T05:46:54;9.57;;;7.65;;
45887;SDS011;31595;51.418;7.572;2023-12-14T05:49:22;9.88;;;7.93;;
45887;SDS011;31595;51.418;7.572;2023-12-14T05:51:48;10.27;;;8.35;;
45887;SDS011;31595;51.418;7.572;2023-12-14T05:54:15;10.75;;;7.63;;
45887;SDS011;31595;51.418;7.572;2023-12-14T05:56:42;10.23;;;7.65;;
45887;SDS011;31595;51.418;7.572;2023-12-14T05:59:09;13.25;;;7.93;;
45887;SDS011;31595;51.418;7.572;2023-12-14T06:01:36;11.45;;;8.57;;
45887;SDS011;31595;51.418;7.572;2023-12-14T06:04:03;11.57;;;8.13;;
45887;SDS011;31595;51.418;7.572;2023-12-14T06:06:31;9.50;;;7.75;;
45887;SDS011;31595;51.418;7.572;2023-12-14T06:08:58;9.77;;;7.72;;
45887;SDS011;31595;51.418;7.572;2023-12-14T06:11:24;9.23;;;8.00;;
45887;SDS011;31595;51.418;7.572;2023-12-14T06:13:51;10.73;;;8.55;;
45887;SDS011;31595;51.418;7.572;2023-12-14T06:16:18;11.20;;;9.07;;
45887;SDS011;31595;51.418;7.572;2023-12-14T06:18:45;11.52;;;9.00;;
45887;SDS011;31595;51.418;7.572;2023-12-14T06:21:12;10.10;;;8.00;;
45887;SDS011;31595;51.418;7.572;2023-12-14T06:23:40;10.13;;;8.57;;
45887;SDS011;31595;51.418;7.572;2023-12-14T06:26:07;10.43;;;8.20;;
45887;SDS011;31595;51.418;7.572;2023-12-14T06:28:34;10.73;;;8.52;;
45887;SDS011;31595;51.418;7.572;2023-12-14T06:31:00;11.82;;;8.18;;
45887;SDS011;31595;51.418;7.572;2023-12-14T06:33:27;11.15;;;8.65;;
45887;SDS011;31595;51.418;7.572;2023-12-14T06:35:54;12.23;;;8.70;;
45887;SDS011;31595;51.418;7.572;2023-12-14T06:38:21;12.77;;;9.50;;
45887;SDS011;31595;51.418;7.572;2023-12-14T06:40:49;13.73;;;9.57;;
45887;SDS011;31595;51.418;7.572;2023-12-14T06:43:16;13.40;;;10.10;;
45887;SDS011;31595;51.418;7.572;2023-12-14T06:45:43;13.88;;;10.25;;
45887;SDS011;31595;51.418;7.572;2023-12-14T06:48:10;11.85;;;9.00;;
45887;SDS011;31595;51.418;7.572;2023-12-14T06:50:36;12.95;;;10.15;;
45887;SDS011;31595;51.418;7.572;2023-12-14T06:53:03;15.13;;;11.15;;
45887;SDS011;31595;51.418;7.572;2023-12-14T06:55:30;12.68;;;9.75;;
45887;SDS011;31595;51.418;7.572;2023-12-14T06:57:58;13.05;;;10.10;;
45887;SDS011;31595;51.418;7.572;2023-12-14T07:00:25;15.30;;;10.70;;
45887;SDS011;31595;51.418;7.572;2023-12-14T07:02:54;14.25;;;10.40;;
45887;SDS011;31595;51.418;7.572;2023-12-14T07:05:21;14.25;;;10.98;;
45887;SDS011;31595;51.418;7.572;2023-12-14T07:07:48;12.23;;;9.73;;
45887;SDS011;31595;51.418;7.572;2023-12-14T07:10:15;15.85;;;10.77;;
45887;SDS011;31595;51.418;7.572;2023-12-14T07:12:41;14.93;;;12.20;;
45887;SDS011;31595;51.418;7.572;2023-12-14T07:15:10;14.90;;;11.82;;
45887;SDS011;31595;51.418;7.572;2023-12-14T07:17:36;16.30;;;12.52;;
45887;SDS011;31595;51.418;7.572;2023-12-14T07:20:04;16.38;;;12.90;;
45887;SDS011;31595;51.418;7.572;2023-12-14T07:22:31;15.57;;;12.05;;
45887;SDS011;31595;51.418;7.572;2023-12-14T07:24:58;16.90;;;13.02;;
45887;SDS011;31595;51.418;7.572;2023-12-14T07:27:25;16.52;;;12.40;;
45887;SDS011;31595;51.418;7.572;2023-12-14T07:29:52;15.38;;;12.63;;
45887;SDS011;31595;51.418;7.572;2023-12-14T07:32:20;14.57;;;12.18;;
45887;SDS011;31595;51.418;7.572;2023-12-14T07:34:47;17.25;;;13.32;;
45887;SDS011;31595;51.418;7.572;2023-12-14T07:37:13;17.20;;;13.20;;
45887;SDS011;31595;51.418;7.572;2023-12-14T07:39:40;16.48;;;12.73;;
45887;SDS011;31595;51.418;7.572;2023-12-14T07:42:07;17.00;;;13.80;;
45887;SDS011;31595;51.418;7.572;2023-12-14T07:44:34;18.45;;;13.15;;
45887;SDS011;31595;51.418;7.572;2023-12-14T07:47:01;16.17;;;13.25;;
45887;SDS011;31595;51.418;7.572;2023-12-14T07:49:30;15.95;;;12.60;;
45887;SDS011;31595;51.418;7.572;2023-12-14T07:51:57;16.92;;;13.57;;
45887;SDS011;31595;51.418;7.572;2023-12-14T07:54:23;16.15;;;12.35;;
45887;SDS011;31595;51.418;7.572;2023-12-14T07:56:52;16.17;;;13.30;;
45887;SDS011;31595;51.418;7.572;2023-12-14T07:59:19;15.65;;;12.75;;
45887;SDS011;31595;51.418;7.572;2023-12-14T08:01:46;17.02;;;13.48;;
45887;SDS011;31595;51.418;7.572;2023-12-14T08:04:13;17.83;;;14.82;;
45887;SDS011;31595;51.418;7.572;2023-12-14T08:06:41;14.57;;;13.05;;
45887;SDS011;31595;51.418;7.572;2023-12-14T08:09:08;18.45;;;14.48;;
45887;SDS011;31595;51.418;7.572;2023-12-14T08:11:35;18.38;;;14.00;;
45887;SDS011;31595;51.418;7.572;2023-12-14T08:14:01;20.02;;;14.88;;
45887;SDS011;31595;51.418;7.572;2023-12-14T08:16:28;20.70;;;14.88;;
45887;SDS011;31595;51.418;7.572;2023-12-14T08:18:55;17.92;;;14.63;;
45887;SDS011;31595;51.418;7.572;2023-12-14T08:21:22;18.92;;;14.55;;
45887;SDS011;31595;51.418;7.572;2023-12-14T08:23:50;17.80;;;14.65;;
45887;SDS011;31595;51.418;7.572;2023-12-14T08:26:17;18.42;;;15.05;;
45887;SDS011;31595;51.418;7.572;2023-12-14T08:28:43;20.65;;;14.88;;
45887;SDS011;31595;51.418;7.572;2023-12-14T08:31:10;19.38;;;15.73;;
45887;SDS011;31595;51.418;7.572;2023-12-14T08:33:37;20.40;;;16.25;;
45887;SDS011;31595;51.418;7.572;2023-12-14T08:36:04;20.08;;;15.23;;
45887;SDS011;31595;51.418;7.572;2023-12-14T08:38:31;19.67;;;15.60;;
45887;SDS011;31595;51.418;7.572;2023-12-14T08:40:59;19.08;;;15.43;;
45887;SDS011;31595;51.418;7.572;2023-12-14T08:43:26;16.40;;;13.98;;
45887;SDS011;31595;51.418;7.572;2023-12-14T08:45:53;19.85;;;15.52;;
45887;SDS011;31595;51.418;7.572;2023-12-14T08:48:20;19.55;;;16.10;;
45887;SDS011;31595;51.418;7.572;2023-12-14T08:50:47;20.15;;;15.73;;
45887;SDS011;31595;51.418;7.572;2023-12-14T08:53:13;19.30;;;14.85;;
45887;SDS011;31595;51.418;7.572;2023-12-14T08:55:40;21.60;;;17.45;;
45887;SDS011;31595;51.418;7.572;2023-12-14T08:58:08;23.52;;;17.30;;
45887;SDS011;31595;51.418;7.572;2023-12-14T09:00:35;27.95;;;19.85;;
45887;SDS011;31595;51.418;7.572;2023-12-14T09:03:02;24.80;;;18.63;;
45887;SDS011;31595;51.418;7.572;2023-12-14T09:05:29;24.98;;;19.48;;
45887;SDS011;31595;51.418;7.572;2023-12-14T09:07:55;23.73;;;18.05;;
45887;SDS011;31595;51.418;7.572;2023-12-14T09:10:24;28.50;;;20.20;;
45887;SDS011;31595;51.418;7.572;2023-12-14T09:12:51;30.95;;;22.02;;
45887;SDS011;31595;51.418;7.572;2023-12-14T09:15:20;26.20;;;19.55;;
45887;SDS011;31595;51.418;7.572;2023-12-14T09:17:46;21.60;;;16.40;;
45887;SDS011;31595;51.418;7.572;2023-12-14T09:20:13;20.17;;;16.02;;
45887;SDS011;31595;51.418;7.572;2023-12-14T09:22:40;20.73;;;16.02;;
45887;SDS011;31595;51.418;7.572;2023-12-14T09:25:07;18.52;;;14.77;;
45887;SDS011;31595;51.418;7.572;2023-12-14T09:27:34;18.58;;;15.57;;
45887;SDS011;31595;51.418;7.572;2023-12-14T09:30:01;18.50;;;15.02;;
45887;SDS011;31595;51.418;7.572;2023-12-14T09:32:30;20.98;;;15.82;;
45887;SDS011;31595;51.418;7.572;2023-12-14T09:34:56;21.05;;;16.13;;
45887;SDS011;31595;51.418;7.572;2023-12-14T09:37:23;20.85;;;16.08;;
45887;SDS011;31595;51.418;7.572;2023-12-14T09:39:50;21.00;;;16.67;;
45887;SDS011;31595;51.418;7.572;2023-12-14T09:42:17;23.65;;;18.17;;
45887;SDS011;31595;51.418;7.572;2023-12-14T09:44:44;20.80;;;16.38;;
45887;SDS011;31595;51.418;7.572;2023-12-14T09:47:12;20.23;;;16.42;;
45887;SDS011;31595;51.418;7.572;2023-12-14T09:49:40;20.50;;;15.60;;
45887;SDS011;31595;51.418;7.572;2023-12-14T09:52:08;19.25;;;15.20;;
45887;SDS011;31595;51.418;7.572;2023-12-14T09:54:35;17.88;;;15.05;;
45887;SDS011;31595;51.418;7.572;2023-12-14T09:57:02;17.98;;;15.25;;
45887;SDS011;31595;51.418;7.572;2023-12-14T09:59:28;19.75;;;15.55;;
45887;SDS011;31595;51.418;7.572;2023-12-14T10:02:02;18.60;;;14.68;;
45887;SDS011;31595;51.418;7.572;2023-12-14T10:04:35;20.98;;;15.60;;
45887;SDS011;31595;51.418;7.572;2023-12-14T10:07:03;17.80;;;15.40;;
45887;SDS011;31595;51.418;7.572;2023-12-14T10:09:32;19.05;;;15.38;;
45887;SDS011;31595;51.418;7.572;2023-12-14T10:12:02;18.50;;;15.43;;
45887;SDS011;31595;51.418;7.572;2023-12-14T10:14:29;19.65;;;14.48;;
45887;SDS011;31595;51.418;7.572;2023-12-14T10:16:56;18.10;;;15.35;;
45887;SDS011;31595;51.418;7.572;2023-12-14T10:19:22;20.48;;;15.35;;
45887;SDS011;31595;51.418;7.572;2023-12-14T10:21:49;22.33;;;17.10;;
45887;SDS011;31595;51.418;7.572;2023-12-14T10:24:18;21.50;;;16.80;;
45887;SDS011;31595;51.418;7.572;2023-12-14T10:26:45;21.48;;;16.88;;
45887;SDS011;31595;51.418;7.572;2023-12-14T10:29:12;19.08;;;15.75;;
45887;SDS011;31595;51.418;7.572;2023-12-14T10:31:39;20.00;;;16.85;;
45887;SDS011;31595;51.418;7.572;2023-12-14T10:34:06;22.73;;;18.13;;
45887;SDS011;31595;51.418;7.572;2023-12-14T10:36:33;24.17;;;17.98;;
45887;SDS011;31595;51.418;7.572;2023-12-14T10:39:01;24.00;;;18.25;;
45887;SDS011;31595;51.418;7.572;2023-12-14T10:41:29;23.52;;;18.15;;
45887;SDS011;31595;51.418;7.572;2023-12-14T10:43:58;21.98;;;17.45;;
45887;SDS011;31595;51.418;7.572;2023-12-14T10:46:27;24.00;;;17.88;;
45887;SDS011;31595;51.418;7.572;2023-12-14T10:48:54;20.90;;;16.33;;
45887;SDS011;31595;51.418;7.572;2023-12-14T10:51:22;23.70;;;18.42;;
45887;SDS011;31595;51.418;7.572;2023-12-14T10:53:50;22.50;;;16.85;;
45887;SDS011;31595;51.418;7.572;2023-12-14T10:56:17;20.55;;;16.42;;
45887;SDS011;31595;51.418;7.572;2023-12-14T10:58:46;22.38;;;17.15;;
45887;SDS011;31595;51.418;7.572;2023-12-14T11:01:13;19.83;;;15.65;;
45887;SDS011;31595;51.418;7.572;2023-12-14T11:03:40;20.25;;;15.63;;
45887;SDS011;31595;51.418;7.572;2023-12-14T11:06:15;21.67;;;16.88;;
45887;SDS011;31595;51.418;7.572;2023-12-14T11:08:44;22.25;;;16.73;;
45887;SDS011;31595;51.418;7.572;2023-12-14T11:11:10;23.42;;;17.40;;
45887;SDS011;31595;51.418;7.572;2023-12-14T11:13:40;23.60;;;17.40;;
45887;SDS011;31595;51.418;7.572;2023-12-14T11:16:09;23.20;;;17.40;;
45887;SDS011;31595;51.418;7.572;2023-12-14T11:18:35;22.15;;;16.63;;
45887;SDS011;31595;51.418;7.572;2023-12-14T11:21:02;25.25;;;16.67;;
45887;SDS011;31595;51.418;7.572;2023-12-14T11:23:33;20.83;;;16.42;;
45887;SDS011;31595;51.418;7.572;2023-12-14T11:26:01;20.95;;;16.83;;
45887;SDS011;31595;51.418;7.572;2023-12-14T11:28:30;20.65;;;15.63;;
45887;SDS011;31595;51.418;7.572;2023-12-14T11:30:57;21.90;;;16.60;;
45887;SDS011;31595;51.418;7.572;2023-12-14T11:33:25;21.60;;;16.42;;
45887;SDS011;31595;51.418;7.572;2023-12-14T11:35:54;21.45;;;16.58;;
45887;SDS011;31595;51.418;7.572;2023-12-14T11:38:21;21.90;;;17.13;;
45887;SDS011;31595;51.418;7.572;2023-12-14T11:40:49;21.23;;;15.70;;
45887;SDS011;31595;51.418;7.572;2023-12-14T11:43:15;21.60;;;16.00;;
45887;SDS011;31595;51.418;7.572;2023-12-14T11:48:12;22.95;;;16.20;;
45887;SDS011;31595;51.418;7.572;2023-12-14T11:50:41;20.83;;;16.20;;
45887;SDS011;31595;51.418;7.572;2023-12-14T11:53:08;21.27;;;16.27;;
45887;SDS011;31595;51.418;7.572;2023-12-14T11:55:36;22.20;;;17.27;;
45887;SDS011;31595;51.418;7.572;2023-12-14T11:58:03;21.23;;;15.98;;
45887;SDS011;31595;51.418;7.572;2023-12-14T12:00:30;19.65;;;15.40;;
45887;SDS011;31595;51.418;7.572;2023-12-14T12:03:07;20.17;;;15.02;;
45887;SDS011;31595;51.418;7.572;2023-12-14T12:05:37;21.10;;;15.82;;
45887;SDS011;31595;51.418;7.572;2023-12-14T12:08:06;24.80;;;17.08;;
45887;SDS011;31595;51.418;7.572;2023-12-14T12:10:33;22.33;;;17.27;;
45887;SDS011;31595;51.418;7.572;2023-12-14T12:13:01;20.45;;;15.75;;
45887;SDS011;31595;51.418;7.572;2023-12-14T12:15:28;21.23;;;16.48;;
45887;SDS011;31595;51.418;7.572;2023-12-14T12:17:56;20.55;;;16.80;;
45887;SDS011;31595;51.418;7.572;2023-12-14T12:20:23;22.05;;;16.33;;
45887;SDS011;31595;51.418;7.572;2023-12-14T12:22:51;24.45;;;17.33;;
45887;SDS011;31595;51.418;7.572;2023-12-14T12:25:19;23.35;;;17.05;;
45887;SDS011;31595;51.418;7.572;2023-12-14T12:27:46;20.38;;;15.77;;
45887;SDS011;31595;51.418;7.572;2023-12-14T12:30:13;20.85;;;16.20;;
45887;SDS011;31595;51.418;7.572;2023-12-14T12:32:40;22.40;;;16.40;;
45887;SDS011;31595;51.418;7.572;2023-12-14T12:35:07;22.83;;;17.40;;
45887;SDS011;31595;51.418;7.572;2023-12-14T12:37:34;22.10;;;17.45;;
45887;SDS011;31595;51.418;7.572;2023-12-14T12:40:02;23.95;;;17.65;;
45887;SDS011;31595;51.418;7.572;2023-12-14T12:42:31;22.20;;;16.98;;
45887;SDS011;31595;51.418;7.572;2023-12-14T12:44:58;22.55;;;17.02;;
45887;SDS011;31595;51.418;7.572;2023-12-14T12:47:24;22.67;;;17.27;;
45887;SDS011;31595;51.418;7.572;2023-12-14T12:49:51;22.50;;;17.50;;
45887;SDS011;31595;51.418;7.572;2023-12-14T12:52:18;22.35;;;16.77;;
45887;SDS011;31595;51.418;7.572;2023-12-14T12:54:45;25.13;;;17.80;;
45887;SDS011;31595;51.418;7.572;2023-12-14T12:57:12;26.55;;;18.98;;
45887;SDS011;31595;51.418;7.572;2023-12-14T12:59:40;25.02;;;19.00;;
45887;SDS011;31595;51.418;7.572;2023-12-14T13:02:07;26.25;;;18.90;;
45887;SDS011;31595;51.418;7.572;2023-12-14T13:04:33;27.13;;;21.00;;
45887;SDS011;31595;51.418;7.572;2023-12-14T13:07:02;25.45;;;20.48;;
45887;SDS011;31595;51.418;7.572;2023-12-14T13:09:29;28.95;;;20.85;;
45887;SDS011;31595;51.418;7.572;2023-12-14T13:11:56;24.65;;;19.60;;
45887;SDS011;31595;51.418;7.572;2023-12-14T13:14:23;25.80;;;19.83;;
45887;SDS011;31595;51.418;7.572;2023-12-14T13:16:51;28.13;;;20.13;;
45887;SDS011;31595;51.418;7.572;2023-12-14T13:19:18;23.67;;;18.23;;
45887;SDS011;31595;51.418;7.572;2023-12-14T13:21:45;28.73;;;21.52;;
45887;SDS011;31595;51.418;7.572;2023-12-14T13:24:12;24.90;;;19.65;;
45887;SDS011;31595;51.418;7.572;2023-12-14T13:26:38;26.63;;;18.65;;
45887;SDS011;31595;51.418;7.572;2023-12-14T13:29:05;20.58;;;16.52;;
45887;SDS011;31595;51.418;7.572;2023-12-14T13:31:33;23.70;;;18.15;;
45887;SDS011;31595;51.418;7.572;2023-12-14T13:34:01;23.35;;;16.92;;
45887;SDS011;31595;51.418;7.572;2023-12-14T13:36:28;26.63;;;19.63;;
45887;SDS011;31595;51.418;7.572;2023-12-14T13:38:55;23.98;;;18.00;;
45887;SDS011;31595;51.418;7.572;2023-12-14T13:41:23;25.45;;;18.85;;
45887;SDS011;31595;51.418;7.572;2023-12-14T13:43:49;25.90;;;19.70;;
45887;SDS011;31595;51.418;7.572;2023-12-14T13:46:17;28.17;;;18.75;;
45887;SDS011;31595;51.418;7.572;2023-12-14T13:48:43;29.02;;;21.15;;
45887;SDS011;31595;51.418;7.572;2023-12-14T13:51:12;32.22;;;22.30;;
45887;SDS011;31595;51.418;7.572;2023-12-14T13:53:38;30.10;;;21.17;;
45887;SDS011;31595;51.418;7.572;2023-12-14T13:56:05;29.05;;;20.52;;
45887;SDS011;31595;51.418;7.572;2023-12-14T13:58:32;37.72;;;26.50;;
45887;SDS011;31595;51.418;7.572;2023-12-14T14:03:29;28.52;;;20.35;;
45887;SDS011;31595;51.418;7.572;2023-12-14T14:05:55;31.30;;;22.33;;
45887;SDS011;31595;51.418;7.572;2023-12-14T14:08:25;29.73;;;22.13;;
45887;SDS011;31595;51.418;7.572;2023-12-14T14:10:51;25.98;;;20.90;;
45887;SDS011;31595;51.418;7.572;2023-12-14T14:13:18;28.67;;;21.15;;
45887;SDS011;31595;51.418;7.572;2023-12-14T14:15:45;31.83;;;22.42;;
45887;SDS011;31595;51.418;7.572;2023-12-14T14:18:12;28.27;;;21.33;;
45887;SDS011;31595;51.418;7.572;2023-12-14T14:20:39;30.40;;;21.77;;
45887;SDS011;31595;51.418;7.572;2023-12-14T14:23:06;26.25;;;19.92;;
45887;SDS011;31595;51.418;7.572;2023-12-14T14:25:34;26.30;;;19.98;;
45887;SDS011;31595;51.418;7.572;2023-12-14T14:28:01;27.35;;;20.95;;
45887;SDS011;31595;51.418;7.572;2023-12-14T14:30:29;28.40;;;20.77;;